sensor_id;sensor_type;location;lat;lon;timestamp;P1;durP1;ratioP1;P2;durP2;ratioP2
42488;SDS011;28118;52.388;9.452;2022-08-07T00:01:23;4.80;;;4.15;;
42488;SDS011;28118;52.388;9.452;2022-08-07T00:04:10;4.38;;;3.38;;
42488;SDS011;28118;52.388;9.452;2022-08-07T00:06:40;9.30;;;4.90;;
42488;SDS011;28118;52.388;9.452;2022-08-07T00:09:18;5.00;;;4.43;;
42488;SDS011;28118;52.388;9.452;2022-08-07T00:11:48;8.63;;;4.15;;
42488;SDS011;28118;52.388;9.452;2022-08-07T00:14:21;7.15;;;4.00;;
42488;SDS011;28118;52.388;9.452;2022-08-07T00:16:55;4.65;;;3.50;;
42488;SDS011;28118;52.388;9.452;2022-08-07T00:19:22;4.60;;;4.13;;
42488;SDS011;28118;52.388;9.452;2022-08-07T00:21:59;4.72;;;4.32;;
42488;SDS011;28118;52.388;9.452;2022-08-07T00:24:28;3.70;;;3.38;;
42488;SDS011;28118;52.388;9.452;2022-08-07T00:26:57;4.40;;;3.97;;
42488;SDS011;28118;52.388;9.452;2022-08-07T00:29:32;7.78;;;4.57;;
42488;SDS011;28118;52.388;9.452;2022-08-07T00:32:02;4.63;;;3.90;;
42488;SDS011;28118;52.388;9.452;2022-08-07T00:34:31;3.65;;;3.28;;
42488;SDS011;28118;52.388;9.452;2022-08-07T00:37:00;5.18;;;4.55;;
42488;SDS011;28118;52.388;9.452;2022-08-07T00:39:30;6.60;;;4.45;;
42488;SDS011;28118;52.388;9.452;2022-08-07T00:41:57;3.53;;;3.22;;
42488;SDS011;28118;52.388;9.452;2022-08-07T00:44:30;5.65;;;3.53;;
42488;SDS011;28118;52.388;9.452;2022-08-07T00:47:06;3.40;;;3.10;;
42488;SDS011;28118;52.388;9.452;2022-08-07T00:49:53;3.38;;;3.00;;
42488;SDS011;28118;52.388;9.452;2022-08-07T00:52:40;5.75;;;4.15;;
42488;SDS011;28118;52.388;9.452;2022-08-07T00:55:12;4.20;;;3.63;;
42488;SDS011;28118;52.388;9.452;2022-08-07T00:57:42;3.90;;;3.30;;
42488;SDS011;28118;52.388;9.452;2022-08-07T01:00:21;4.47;;;3.80;;
42488;SDS011;28118;52.388;9.452;2022-08-07T01:02:48;6.63;;;5.35;;
42488;SDS011;28118;52.388;9.452;2022-08-07T01:05:16;5.00;;;4.00;;
42488;SDS011;28118;52.388;9.452;2022-08-07T01:07:44;6.35;;;4.82;;
42488;SDS011;28118;52.388;9.452;2022-08-07T01:10:14;4.55;;;4.13;;
42488;SDS011;28118;52.388;9.452;2022-08-07T01:12:43;6.20;;;4.75;;
42488;SDS011;28118;52.388;9.452;2022-08-07T01:15:20;3.65;;;3.35;;
42488;SDS011;28118;52.388;9.452;2022-08-07T01:18:08;5.25;;;4.82;;
42488;SDS011;28118;52.388;9.452;2022-08-07T01:20:36;5.07;;;4.00;;
42488;SDS011;28118;52.388;9.452;2022-08-07T01:23:24;4.47;;;4.07;;
42488;SDS011;28118;52.388;9.452;2022-08-07T01:26:04;6.82;;;3.70;;
42488;SDS011;28118;52.388;9.452;2022-08-07T01:28:37;4.30;;;4.00;;
42488;SDS011;28118;52.388;9.452;2022-08-07T01:31:11;5.38;;;4.78;;
42488;SDS011;28118;52.388;9.452;2022-08-07T01:33:42;4.50;;;4.07;;
42488;SDS011;28118;52.388;9.452;2022-08-07T01:36:23;4.85;;;4.35;;
42488;SDS011;28118;52.388;9.452;2022-08-07T01:38:59;7.43;;;4.32;;
42488;SDS011;28118;52.388;9.452;2022-08-07T01:41:29;5.43;;;3.78;;
42488;SDS011;28118;52.388;9.452;2022-08-07T01:43:57;7.32;;;4.95;;
42488;SDS011;28118;52.388;9.452;2022-08-07T01:46:26;6.13;;;5.15;;
42488;SDS011;28118;52.388;9.452;2022-08-07T01:48:56;10.30;;;5.82;;
42488;SDS011;28118;52.388;9.452;2022-08-07T01:51:25;6.18;;;4.95;;
42488;SDS011;28118;52.388;9.452;2022-08-07T01:54:13;5.55;;;3.92;;
42488;SDS011;28118;52.388;9.452;2022-08-07T01:57:16;5.18;;;4.78;;
42488;SDS011;28118;52.388;9.452;2022-08-07T01:59:54;5.32;;;4.93;;
42488;SDS011;28118;52.388;9.452;2022-08-07T02:02:28;6.43;;;5.75;;
42488;SDS011;28118;52.388;9.452;2022-08-07T02:05:25;5.80;;;5.30;;
42488;SDS011;28118;52.388;9.452;2022-08-07T02:08:19;6.85;;;5.25;;
42488;SDS011;28118;52.388;9.452;2022-08-07T02:10:50;5.88;;;5.20;;
42488;SDS011;28118;52.388;9.452;2022-08-07T02:13:20;5.00;;;4.60;;
42488;SDS011;28118;52.388;9.452;2022-08-07T02:16:09;8.05;;;5.82;;
42488;SDS011;28118;52.388;9.452;2022-08-07T02:18:37;6.90;;;5.75;;
42488;SDS011;28118;52.388;9.452;2022-08-07T02:21:12;6.13;;;4.95;;
42488;SDS011;28118;52.388;9.452;2022-08-07T02:23:41;11.15;;;4.85;;
42488;SDS011;28118;52.388;9.452;2022-08-07T02:26:10;5.05;;;4.60;;
42488;SDS011;28118;52.388;9.452;2022-08-07T02:28:58;6.45;;;5.85;;
42488;SDS011;28118;52.388;9.452;2022-08-07T02:31:27;11.18;;;4.93;;
42488;SDS011;28118;52.388;9.452;2022-08-07T02:33:54;5.10;;;4.68;;
42488;SDS011;28118;52.388;9.452;2022-08-07T02:36:29;7.95;;;6.05;;
42488;SDS011;28118;52.388;9.452;2022-08-07T02:38:58;7.35;;;5.28;;
42488;SDS011;28118;52.388;9.452;2022-08-07T02:41:47;4.47;;;4.07;;
42488;SDS011;28118;52.388;9.452;2022-08-07T02:44:20;6.60;;;5.97;;
42488;SDS011;28118;52.388;9.452;2022-08-07T02:47:00;7.93;;;4.57;;
42488;SDS011;28118;52.388;9.452;2022-08-07T02:49:28;6.35;;;5.75;;
42488;SDS011;28118;52.388;9.452;2022-08-07T02:52:16;13.38;;;6.28;;
42488;SDS011;28118;52.388;9.452;2022-08-07T02:54:58;4.95;;;4.55;;
42488;SDS011;28118;52.388;9.452;2022-08-07T02:57:29;5.93;;;5.43;;
42488;SDS011;28118;52.388;9.452;2022-08-07T03:00:00;4.88;;;4.45;;
42488;SDS011;28118;52.388;9.452;2022-08-07T03:02:35;5.95;;;4.53;;
42488;SDS011;28118;52.388;9.452;2022-08-07T03:05:19;8.25;;;4.00;;
42488;SDS011;28118;52.388;9.452;2022-08-07T03:07:49;6.35;;;5.75;;
42488;SDS011;28118;52.388;9.452;2022-08-07T03:10:33;4.85;;;4.40;;
42488;SDS011;28118;52.388;9.452;2022-08-07T03:13:06;5.50;;;5.00;;
42488;SDS011;28118;52.388;9.452;2022-08-07T03:15:33;5.90;;;5.13;;
42488;SDS011;28118;52.388;9.452;2022-08-07T03:18:21;7.25;;;5.53;;
42488;SDS011;28118;52.388;9.452;2022-08-07T03:21:00;9.35;;;5.78;;
42488;SDS011;28118;52.388;9.452;2022-08-07T03:23:29;6.32;;;5.72;;
42488;SDS011;28118;52.388;9.452;2022-08-07T03:26:18;4.93;;;4.53;;
42488;SDS011;28118;52.388;9.452;2022-08-07T03:28:48;9.63;;;6.32;;
42488;SDS011;28118;52.388;9.452;2022-08-07T03:31:16;5.35;;;4.85;;
42488;SDS011;28118;52.388;9.452;2022-08-07T03:33:55;11.27;;;6.10;;
42488;SDS011;28118;52.388;9.452;2022-08-07T03:36:25;8.18;;;5.22;;
42488;SDS011;28118;52.388;9.452;2022-08-07T03:38:54;6.07;;;5.50;;
42488;SDS011;28118;52.388;9.452;2022-08-07T03:41:30;5.63;;;5.13;;
42488;SDS011;28118;52.388;9.452;2022-08-07T03:44:07;5.82;;;4.50;;
42488;SDS011;28118;52.388;9.452;2022-08-07T03:46:34;9.48;;;5.32;;
42488;SDS011;28118;52.388;9.452;2022-08-07T03:49:23;6.82;;;5.82;;
42488;SDS011;28118;52.388;9.452;2022-08-07T03:51:53;7.28;;;6.57;;
42488;SDS011;28118;52.388;9.452;2022-08-07T03:54:27;7.32;;;6.63;;
42488;SDS011;28118;52.388;9.452;2022-08-07T03:57:14;8.85;;;6.20;;
42488;SDS011;28118;52.388;9.452;2022-08-07T04:00:01;4.93;;;4.43;;
42488;SDS011;28118;52.388;9.452;2022-08-07T04:02:30;6.68;;;5.97;;
42488;SDS011;28118;52.388;9.452;2022-08-07T04:04:57;7.07;;;6.32;;
42488;SDS011;28118;52.388;9.452;2022-08-07T04:07:24;11.25;;;6.32;;
42488;SDS011;28118;52.388;9.452;2022-08-07T04:10:01;10.52;;;6.57;;
42488;SDS011;28118;52.388;9.452;2022-08-07T04:12:30;8.95;;;5.53;;
42488;SDS011;28118;52.388;9.452;2022-08-07T04:15:00;7.72;;;5.55;;
42488;SDS011;28118;52.388;9.452;2022-08-07T04:17:30;10.95;;;6.90;;
42488;SDS011;28118;52.388;9.452;2022-08-07T04:20:17;9.82;;;7.68;;
42488;SDS011;28118;52.388;9.452;2022-08-07T04:22:45;8.00;;;6.75;;
42488;SDS011;28118;52.388;9.452;2022-08-07T04:25:26;11.80;;;7.50;;
42488;SDS011;28118;52.388;9.452;2022-08-07T04:27:54;8.40;;;5.95;;
42488;SDS011;28118;52.388;9.452;2022-08-07T04:30:26;8.77;;;7.35;;
42488;SDS011;28118;52.388;9.452;2022-08-07T04:33:13;9.65;;;6.93;;
42488;SDS011;28118;52.388;9.452;2022-08-07T04:35:43;7.97;;;7.28;;
42488;SDS011;28118;52.388;9.452;2022-08-07T04:38:18;9.45;;;7.18;;
42488;SDS011;28118;52.388;9.452;2022-08-07T04:40:45;8.20;;;7.22;;
42488;SDS011;28118;52.388;9.452;2022-08-07T04:43:19;7.03;;;6.32;;
42488;SDS011;28118;52.388;9.452;2022-08-07T04:46:15;6.80;;;6.10;;
42488;SDS011;28118;52.388;9.452;2022-08-07T04:49:09;17.10;;;7.22;;
42488;SDS011;28118;52.388;9.452;2022-08-07T04:54:41;7.65;;;6.18;;
42488;SDS011;28118;52.388;9.452;2022-08-07T05:00:47;9.05;;;7.35;;
42488;SDS011;28118;52.388;9.452;2022-08-07T05:06:34;8.45;;;7.60;;
42488;SDS011;28118;52.388;9.452;2022-08-07T05:09:09;9.02;;;7.93;;
42488;SDS011;28118;52.388;9.452;2022-08-07T05:14:52;14.15;;;7.53;;
42488;SDS011;28118;52.388;9.452;2022-08-07T05:17:30;9.23;;;8.20;;
42488;SDS011;28118;52.388;9.452;2022-08-07T05:20:19;8.63;;;6.35;;
42488;SDS011;28118;52.388;9.452;2022-08-07T05:22:53;10.38;;;7.30;;
42488;SDS011;28118;52.388;9.452;2022-08-07T05:28:12;11.13;;;8.32;;
42488;SDS011;28118;52.388;9.452;2022-08-07T05:30:47;7.97;;;7.18;;
42488;SDS011;28118;52.388;9.452;2022-08-07T05:33:15;9.55;;;8.23;;
42488;SDS011;28118;52.388;9.452;2022-08-07T05:35:43;10.90;;;7.90;;
42488;SDS011;28118;52.388;9.452;2022-08-07T05:38:12;11.30;;;8.90;;
42488;SDS011;28118;52.388;9.452;2022-08-07T05:41:01;12.18;;;8.20;;
42488;SDS011;28118;52.388;9.452;2022-08-07T05:43:40;14.05;;;9.35;;
42488;SDS011;28118;52.388;9.452;2022-08-07T05:46:28;12.43;;;9.02;;
42488;SDS011;28118;52.388;9.452;2022-08-07T05:48:56;10.43;;;8.77;;
42488;SDS011;28118;52.388;9.452;2022-08-07T05:51:24;12.45;;;9.55;;
42488;SDS011;28118;52.388;9.452;2022-08-07T05:53:58;9.75;;;8.68;;
42488;SDS011;28118;52.388;9.452;2022-08-07T05:56:46;13.27;;;8.73;;
42488;SDS011;28118;52.388;9.452;2022-08-07T05:59:17;10.77;;;9.20;;
42488;SDS011;28118;52.388;9.452;2022-08-07T06:01:46;10.90;;;9.38;;
42488;SDS011;28118;52.388;9.452;2022-08-07T06:04:14;8.57;;;7.60;;
42488;SDS011;28118;52.388;9.452;2022-08-07T06:06:43;11.38;;;10.07;;
42488;SDS011;28118;52.388;9.452;2022-08-07T06:09:13;14.27;;;9.38;;
42488;SDS011;28118;52.388;9.452;2022-08-07T06:11:41;12.57;;;8.85;;
42488;SDS011;28118;52.388;9.452;2022-08-07T06:14:10;11.77;;;10.57;;
42488;SDS011;28118;52.388;9.452;2022-08-07T06:16:46;10.43;;;8.85;;
42488;SDS011;28118;52.388;9.452;2022-08-07T06:19:20;13.13;;;10.45;;
42488;SDS011;28118;52.388;9.452;2022-08-07T06:22:07;13.02;;;10.23;;
42488;SDS011;28118;52.388;9.452;2022-08-07T06:24:48;11.02;;;9.27;;
42488;SDS011;28118;52.388;9.452;2022-08-07T06:27:26;13.43;;;10.77;;
42488;SDS011;28118;52.388;9.452;2022-08-07T06:30:12;10.88;;;8.13;;
42488;SDS011;28118;52.388;9.452;2022-08-07T06:32:59;10.07;;;8.98;;
42488;SDS011;28118;52.388;9.452;2022-08-07T06:35:28;11.40;;;8.35;;
42488;SDS011;28118;52.388;9.452;2022-08-07T06:38:16;13.95;;;11.02;;
42488;SDS011;28118;52.388;9.452;2022-08-07T06:40:46;9.45;;;7.60;;
42488;SDS011;28118;52.388;9.452;2022-08-07T06:45:48;8.82;;;6.38;;
42488;SDS011;28118;52.388;9.452;2022-08-07T06:48:16;12.27;;;9.07;;
42488;SDS011;28118;52.388;9.452;2022-08-07T06:50:50;9.07;;;8.20;;
42488;SDS011;28118;52.388;9.452;2022-08-07T06:53:19;10.60;;;8.55;;
42488;SDS011;28118;52.388;9.452;2022-08-07T06:56:08;10.27;;;9.00;;
42488;SDS011;28118;52.388;9.452;2022-08-07T06:58:41;10.07;;;7.53;;
42488;SDS011;28118;52.388;9.452;2022-08-07T07:01:28;11.50;;;8.73;;
42488;SDS011;28118;52.388;9.452;2022-08-07T07:04:13;11.30;;;8.10;;
42488;SDS011;28118;52.388;9.452;2022-08-07T07:06:58;9.77;;;8.48;;
42488;SDS011;28118;52.388;9.452;2022-08-07T07:09:28;8.15;;;6.68;;
42488;SDS011;28118;52.388;9.452;2022-08-07T07:12:22;7.95;;;7.15;;
42488;SDS011;28118;52.388;9.452;2022-08-07T07:15:08;10.13;;;7.10;;
42488;SDS011;28118;52.388;9.452;2022-08-07T07:20:25;8.32;;;7.40;;
42488;SDS011;28118;52.388;9.452;2022-08-07T07:22:57;17.42;;;8.13;;
42488;SDS011;28118;52.388;9.452;2022-08-07T07:25:45;8.25;;;7.45;;
42488;SDS011;28118;52.388;9.452;2022-08-07T07:28:37;7.68;;;5.15;;
42488;SDS011;28118;52.388;9.452;2022-08-07T07:31:32;16.20;;;13.20;;
42488;SDS011;28118;52.388;9.452;2022-08-07T07:34:12;11.60;;;9.55;;
42488;SDS011;28118;52.388;9.452;2022-08-07T07:36:46;8.43;;;7.63;;
42488;SDS011;28118;52.388;9.452;2022-08-07T07:39:20;9.88;;;8.65;;
42488;SDS011;28118;52.388;9.452;2022-08-07T07:41:51;8.07;;;7.20;;
42488;SDS011;28118;52.388;9.452;2022-08-07T07:44:41;12.10;;;7.80;;
42488;SDS011;28118;52.388;9.452;2022-08-07T07:47:14;7.65;;;6.88;;
42488;SDS011;28118;52.388;9.452;2022-08-07T07:49:49;9.50;;;8.52;;
42488;SDS011;28118;52.388;9.452;2022-08-07T07:52:38;11.63;;;8.93;;
42488;SDS011;28118;52.388;9.452;2022-08-07T07:55:07;9.05;;;7.65;;
42488;SDS011;28118;52.388;9.452;2022-08-07T07:57:36;10.07;;;6.85;;
42488;SDS011;28118;52.388;9.452;2022-08-07T08:00:18;9.45;;;7.30;;
42488;SDS011;28118;52.388;9.452;2022-08-07T08:03:01;8.65;;;6.43;;
42488;SDS011;28118;52.388;9.452;2022-08-07T08:05:37;11.25;;;5.60;;
42488;SDS011;28118;52.388;9.452;2022-08-07T08:08:22;7.63;;;6.75;;
42488;SDS011;28118;52.388;9.452;2022-08-07T08:11:05;11.13;;;6.60;;
42488;SDS011;28118;52.388;9.452;2022-08-07T08:13:42;6.43;;;5.72;;
42488;SDS011;28118;52.388;9.452;2022-08-07T08:16:22;7.53;;;5.78;;
42488;SDS011;28118;52.388;9.452;2022-08-07T08:19:00;9.30;;;6.20;;
42488;SDS011;28118;52.388;9.452;2022-08-07T08:21:48;6.75;;;5.90;;
42488;SDS011;28118;52.388;9.452;2022-08-07T08:24:37;10.05;;;6.47;;
42488;SDS011;28118;52.388;9.452;2022-08-07T08:27:49;9.43;;;5.32;;
42488;SDS011;28118;52.388;9.452;2022-08-07T08:30:23;4.78;;;3.65;;
42488;SDS011;28118;52.388;9.452;2022-08-07T08:32:54;5.43;;;4.78;;
42488;SDS011;28118;52.388;9.452;2022-08-07T08:35:24;5.78;;;5.28;;
42488;SDS011;28118;52.388;9.452;2022-08-07T08:38:04;6.05;;;5.10;;
42488;SDS011;28118;52.388;9.452;2022-08-07T08:40:40;4.68;;;3.72;;
42488;SDS011;28118;52.388;9.452;2022-08-07T08:43:19;3.38;;;2.85;;
42488;SDS011;28118;52.388;9.452;2022-08-07T08:52:32;5.32;;;3.78;;
42488;SDS011;28118;52.388;9.452;2022-08-07T08:58:26;5.63;;;4.18;;
42488;SDS011;28118;52.388;9.452;2022-08-07T09:00:58;14.37;;;5.20;;
42488;SDS011;28118;52.388;9.452;2022-08-07T09:06:59;9.10;;;3.63;;
42488;SDS011;28118;52.388;9.452;2022-08-07T09:15:04;3.97;;;2.75;;
42488;SDS011;28118;52.388;9.452;2022-08-07T09:18:15;3.80;;;2.70;;
42488;SDS011;28118;52.388;9.452;2022-08-07T09:21:11;7.57;;;2.92;;
42488;SDS011;28118;52.388;9.452;2022-08-07T09:27:32;6.63;;;2.70;;
42488;SDS011;28118;52.388;9.452;2022-08-07T09:30:19;3.47;;;2.10;;
42488;SDS011;28118;52.388;9.452;2022-08-07T09:33:07;2.78;;;2.30;;
42488;SDS011;28118;52.388;9.452;2022-08-07T09:36:23;2.50;;;1.85;;
42488;SDS011;28118;52.388;9.452;2022-08-07T09:54:32;2.25;;;1.60;;
42488;SDS011;28118;52.388;9.452;2022-08-07T10:00:07;18.88;;;8.70;;
42488;SDS011;28118;52.388;9.452;2022-08-07T10:20:35;3.88;;;2.88;;
42488;SDS011;28118;52.388;9.452;2022-08-07T10:23:19;3.47;;;2.42;;
42488;SDS011;28118;52.388;9.452;2022-08-07T10:35:36;4.45;;;2.88;;
42488;SDS011;28118;52.388;9.452;2022-08-07T10:41:28;5.05;;;3.70;;
42488;SDS011;28118;52.388;9.452;2022-08-07T10:44:18;3.95;;;3.38;;
42488;SDS011;28118;52.388;9.452;2022-08-07T10:49:40;3.65;;;2.35;;
42488;SDS011;28118;52.388;9.452;2022-08-07T10:55:10;4.13;;;2.42;;
42488;SDS011;28118;52.388;9.452;2022-08-07T11:00:42;3.17;;;1.77;;
42488;SDS011;28118;52.388;9.452;2022-08-07T11:03:38;3.10;;;2.55;;
42488;SDS011;28118;52.388;9.452;2022-08-07T11:09:52;3.88;;;2.80;;
42488;SDS011;28118;52.388;9.452;2022-08-07T11:12:37;4.85;;;3.42;;
42488;SDS011;28118;52.388;9.452;2022-08-07T11:15:16;7.55;;;2.88;;
42488;SDS011;28118;52.388;9.452;2022-08-07T11:18:02;4.72;;;4.18;;
42488;SDS011;28118;52.388;9.452;2022-08-07T11:20:40;3.50;;;2.50;;
42488;SDS011;28118;52.388;9.452;2022-08-07T11:23:16;2.90;;;2.20;;
42488;SDS011;28118;52.388;9.452;2022-08-07T11:31:33;5.05;;;3.00;;
42488;SDS011;28118;52.388;9.452;2022-08-07T12:06:27;3.83;;;2.22;;
42488;SDS011;28118;52.388;9.452;2022-08-07T12:09:41;2.83;;;2.20;;
42488;SDS011;28118;52.388;9.452;2022-08-07T12:12:24;3.78;;;2.90;;
42488;SDS011;28118;52.388;9.452;2022-08-07T12:15:17;2.40;;;2.17;;
42488;SDS011;28118;52.388;9.452;2022-08-07T12:18:30;7.47;;;2.33;;
42488;SDS011;28118;52.388;9.452;2022-08-07T12:24:09;3.10;;;1.88;;
42488;SDS011;28118;52.388;9.452;2022-08-07T12:27:01;3.70;;;3.10;;
42488;SDS011;28118;52.388;9.452;2022-08-07T12:30:09;4.45;;;3.33;;
42488;SDS011;28118;52.388;9.452;2022-08-07T12:32:51;2.00;;;1.77;;
42488;SDS011;28118;52.388;9.452;2022-08-07T12:35:25;1.88;;;1.42;;
42488;SDS011;28118;52.388;9.452;2022-08-07T12:38:01;3.05;;;2.10;;
42488;SDS011;28118;52.388;9.452;2022-08-07T12:40:43;2.53;;;2.22;;
42488;SDS011;28118;52.388;9.452;2022-08-07T12:43:17;2.55;;;2.20;;
42488;SDS011;28118;52.388;9.452;2022-08-07T12:46:12;3.20;;;2.70;;
42488;SDS011;28118;52.388;9.452;2022-08-07T12:55:07;2.55;;;1.98;;
42488;SDS011;28118;52.388;9.452;2022-08-07T12:57:36;3.38;;;2.08;;
42488;SDS011;28118;52.388;9.452;2022-08-07T13:00:30;3.53;;;2.35;;
42488;SDS011;28118;52.388;9.452;2022-08-07T13:03:25;2.30;;;1.92;;
42488;SDS011;28118;52.388;9.452;2022-08-07T13:06:33;3.45;;;2.33;;
42488;SDS011;28118;52.388;9.452;2022-08-07T13:12:36;4.00;;;2.17;;
42488;SDS011;28118;52.388;9.452;2022-08-07T13:20:56;3.88;;;2.72;;
42488;SDS011;28118;52.388;9.452;2022-08-07T13:29:13;3.13;;;2.25;;
42488;SDS011;28118;52.388;9.452;2022-08-07T13:31:52;3.05;;;2.17;;
42488;SDS011;28118;52.388;9.452;2022-08-07T13:34:52;4.38;;;2.13;;
42488;SDS011;28118;52.388;9.452;2022-08-07T13:37:41;4.35;;;2.83;;
42488;SDS011;28118;52.388;9.452;2022-08-07T13:40:29;4.38;;;2.08;;
42488;SDS011;28118;52.388;9.452;2022-08-07T13:43:09;1.98;;;1.75;;
42488;SDS011;28118;52.388;9.452;2022-08-07T13:45:44;2.33;;;1.75;;
42488;SDS011;28118;52.388;9.452;2022-08-07T13:48:37;5.75;;;2.38;;
42488;SDS011;28118;52.388;9.452;2022-08-07T13:51:05;9.93;;;2.53;;
42488;SDS011;28118;52.388;9.452;2022-08-07T13:53:55;4.32;;;2.13;;
42488;SDS011;28118;52.388;9.452;2022-08-07T13:56:29;1.80;;;1.60;;
42488;SDS011;28118;52.388;9.452;2022-08-07T13:59:14;2.53;;;1.52;;
42488;SDS011;28118;52.388;9.452;2022-08-07T14:07:20;7.63;;;2.55;;
42488;SDS011;28118;52.388;9.452;2022-08-07T14:09:52;3.05;;;2.65;;
42488;SDS011;28118;52.388;9.452;2022-08-07T14:12:44;3.30;;;1.90;;
42488;SDS011;28118;52.388;9.452;2022-08-07T14:15:28;5.78;;;2.33;;
42488;SDS011;28118;52.388;9.452;2022-08-07T14:18:16;3.28;;;1.63;;
42488;SDS011;28118;52.388;9.452;2022-08-07T14:21:29;3.28;;;1.90;;
42488;SDS011;28118;52.388;9.452;2022-08-07T14:24:26;1.67;;;1.38;;
42488;SDS011;28118;52.388;9.452;2022-08-07T14:26:59;3.22;;;2.15;;
42488;SDS011;28118;52.388;9.452;2022-08-07T14:29:49;2.10;;;1.73;;
42488;SDS011;28118;52.388;9.452;2022-08-07T14:32:43;5.95;;;2.83;;
42488;SDS011;28118;52.388;9.452;2022-08-07T14:35:19;2.67;;;1.88;;
42488;SDS011;28118;52.388;9.452;2022-08-07T14:38:08;2.97;;;2.08;;
42488;SDS011;28118;52.388;9.452;2022-08-07T14:40:56;3.13;;;2.08;;
42488;SDS011;28118;52.388;9.452;2022-08-07T14:43:29;2.47;;;2.08;;
42488;SDS011;28118;52.388;9.452;2022-08-07T14:46:18;4.93;;;2.25;;
42488;SDS011;28118;52.388;9.452;2022-08-07T14:48:57;3.90;;;1.40;;
42488;SDS011;28118;52.388;9.452;2022-08-07T14:51:46;7.55;;;1.80;;
42488;SDS011;28118;52.388;9.452;2022-08-07T14:54:34;3.55;;;1.77;;
42488;SDS011;28118;52.388;9.452;2022-08-07T14:57:11;2.58;;;2.05;;
42488;SDS011;28118;52.388;9.452;2022-08-07T14:59:45;3.33;;;2.55;;
42488;SDS011;28118;52.388;9.452;2022-08-07T15:02:31;3.72;;;2.33;;
42488;SDS011;28118;52.388;9.452;2022-08-07T15:05:02;2.13;;;1.60;;
42488;SDS011;28118;52.388;9.452;2022-08-07T15:07:45;1.95;;;1.63;;
42488;SDS011;28118;52.388;9.452;2022-08-07T15:10:21;2.78;;;1.90;;
42488;SDS011;28118;52.388;9.452;2022-08-07T15:13:16;6.13;;;2.13;;
42488;SDS011;28118;52.388;9.452;2022-08-07T15:15:51;2.47;;;1.63;;
42488;SDS011;28118;52.388;9.452;2022-08-07T15:18:36;2.72;;;1.83;;
42488;SDS011;28118;52.388;9.452;2022-08-07T15:21:10;3.30;;;1.65;;
42488;SDS011;28118;52.388;9.452;2022-08-07T15:24:05;2.17;;;1.63;;
42488;SDS011;28118;52.388;9.452;2022-08-07T15:27:04;2.00;;;1.25;;
42488;SDS011;28118;52.388;9.452;2022-08-07T15:29:40;3.65;;;1.63;;
42488;SDS011;28118;52.388;9.452;2022-08-07T15:32:29;4.97;;;1.55;;
42488;SDS011;28118;52.388;9.452;2022-08-07T15:35:05;4.07;;;1.65;;
42488;SDS011;28118;52.388;9.452;2022-08-07T15:37:38;1.52;;;1.33;;
42488;SDS011;28118;52.388;9.452;2022-08-07T15:40:26;2.72;;;1.60;;
42488;SDS011;28118;52.388;9.452;2022-08-07T15:43:16;2.70;;;1.63;;
42488;SDS011;28118;52.388;9.452;2022-08-07T15:46:20;5.43;;;1.98;;
42488;SDS011;28118;52.388;9.452;2022-08-07T15:49:06;6.07;;;1.52;;
42488;SDS011;28118;52.388;9.452;2022-08-07T15:51:44;2.50;;;1.60;;
42488;SDS011;28118;52.388;9.452;2022-08-07T15:54:23;1.52;;;1.10;;
42488;SDS011;28118;52.388;9.452;2022-08-07T15:57:01;2.25;;;1.33;;
42488;SDS011;28118;52.388;9.452;2022-08-07T15:59:30;4.72;;;1.67;;
42488;SDS011;28118;52.388;9.452;2022-08-07T16:02:10;2.00;;;1.80;;
42488;SDS011;28118;52.388;9.452;2022-08-07T16:04:50;3.08;;;2.25;;
42488;SDS011;28118;52.388;9.452;2022-08-07T16:07:25;3.78;;;1.98;;
42488;SDS011;28118;52.388;9.452;2022-08-07T16:10:25;3.83;;;1.88;;
42488;SDS011;28118;52.388;9.452;2022-08-07T16:26:19;1.73;;;1.33;;
42488;SDS011;28118;52.388;9.452;2022-08-07T16:31:54;4.43;;;2.00;;
42488;SDS011;28118;52.388;9.452;2022-08-07T16:34:54;4.93;;;2.47;;
42488;SDS011;28118;52.388;9.452;2022-08-07T16:40:42;4.35;;;1.80;;
42488;SDS011;28118;52.388;9.452;2022-08-07T16:53:13;2.42;;;1.98;;
42488;SDS011;28118;52.388;9.452;2022-08-07T16:59:23;2.40;;;2.20;;
42488;SDS011;28118;52.388;9.452;2022-08-07T17:17:13;21.75;;;2.03;;
42488;SDS011;28118;52.388;9.452;2022-08-07T17:20:13;3.10;;;1.63;;
42488;SDS011;28118;52.388;9.452;2022-08-07T17:25:24;4.85;;;1.85;;
42488;SDS011;28118;52.388;9.452;2022-08-07T17:28:18;3.20;;;2.40;;
42488;SDS011;28118;52.388;9.452;2022-08-07T17:32:01;2.75;;;2.05;;
42488;SDS011;28118;52.388;9.452;2022-08-07T17:34:35;2.40;;;1.77;;
42488;SDS011;28118;52.388;9.452;2022-08-07T17:40:18;3.20;;;2.33;;
42488;SDS011;28118;52.388;9.452;2022-08-07T17:43:05;4.90;;;2.33;;
42488;SDS011;28118;52.388;9.452;2022-08-07T17:45:54;4.70;;;1.83;;
42488;SDS011;28118;52.388;9.452;2022-08-07T17:48:32;3.33;;;2.30;;
42488;SDS011;28118;52.388;9.452;2022-08-07T17:51:23;5.78;;;2.78;;
42488;SDS011;28118;52.388;9.452;2022-08-07T17:54:21;5.50;;;4.05;;
42488;SDS011;28118;52.388;9.452;2022-08-07T17:57:10;3.45;;;2.28;;
42488;SDS011;28118;52.388;9.452;2022-08-07T17:59:45;3.80;;;2.30;;
42488;SDS011;28118;52.388;9.452;2022-08-07T18:05:04;13.38;;;2.53;;
42488;SDS011;28118;52.388;9.452;2022-08-07T18:14:05;2.85;;;1.70;;
42488;SDS011;28118;52.388;9.452;2022-08-07T18:16:51;4.18;;;1.58;;
42488;SDS011;28118;52.388;9.452;2022-08-07T18:19:27;8.52;;;2.25;;
42488;SDS011;28118;52.388;9.452;2022-08-07T18:25:24;2.42;;;1.88;;
42488;SDS011;28118;52.388;9.452;2022-08-07T18:28:18;4.07;;;2.83;;
42488;SDS011;28118;52.388;9.452;2022-08-07T18:31:07;4.68;;;2.08;;
42488;SDS011;28118;52.388;9.452;2022-08-07T18:34:04;5.45;;;2.63;;
42488;SDS011;28118;52.388;9.452;2022-08-07T18:37:05;3.60;;;2.38;;
42488;SDS011;28118;52.388;9.452;2022-08-07T18:40:29;3.85;;;3.50;;
42488;SDS011;28118;52.388;9.452;2022-08-07T18:49:23;4.82;;;3.30;;
42488;SDS011;28118;52.388;9.452;2022-08-07T19:00:46;3.70;;;3.05;;
42488;SDS011;28118;52.388;9.452;2022-08-07T19:03:30;6.32;;;3.33;;
42488;SDS011;28118;52.388;9.452;2022-08-07T19:14:38;5.68;;;4.13;;
42488;SDS011;28118;52.388;9.452;2022-08-07T19:17:17;4.10;;;3.13;;
42488;SDS011;28118;52.388;9.452;2022-08-07T19:20:10;6.90;;;3.75;;
42488;SDS011;28118;52.388;9.452;2022-08-07T19:22:57;4.22;;;3.85;;
42488;SDS011;28118;52.388;9.452;2022-08-07T19:26:11;3.83;;;3.43;;
42488;SDS011;28118;52.388;9.452;2022-08-07T19:28:55;6.32;;;4.78;;
42488;SDS011;28118;52.388;9.452;2022-08-07T19:31:51;4.85;;;4.00;;
42488;SDS011;28118;52.388;9.452;2022-08-07T19:34:47;7.60;;;4.90;;
42488;SDS011;28118;52.388;9.452;2022-08-07T19:37:20;4.50;;;3.47;;
42488;SDS011;28118;52.388;9.452;2022-08-07T19:39:50;5.45;;;3.70;;
42488;SDS011;28118;52.388;9.452;2022-08-07T19:42:28;5.93;;;4.07;;
42488;SDS011;28118;52.388;9.452;2022-08-07T19:45:05;4.15;;;3.58;;
42488;SDS011;28118;52.388;9.452;2022-08-07T19:50:08;4.70;;;3.40;;
42488;SDS011;28118;52.388;9.452;2022-08-07T19:52:55;5.80;;;3.83;;
42488;SDS011;28118;52.388;9.452;2022-08-07T19:55:25;5.43;;;4.28;;
42488;SDS011;28118;52.388;9.452;2022-08-07T19:58:14;10.85;;;4.38;;
42488;SDS011;28118;52.388;9.452;2022-08-07T20:00:47;5.78;;;3.75;;
42488;SDS011;28118;52.388;9.452;2022-08-07T20:03:21;3.72;;;3.13;;
42488;SDS011;28118;52.388;9.452;2022-08-07T20:06:01;5.35;;;4.28;;
42488;SDS011;28118;52.388;9.452;2022-08-07T20:08:34;5.60;;;5.10;;
42488;SDS011;28118;52.388;9.452;2022-08-07T20:11:06;10.43;;;4.85;;
42488;SDS011;28118;52.388;9.452;2022-08-07T20:13:50;6.47;;;4.53;;
42488;SDS011;28118;52.388;9.452;2022-08-07T20:16:26;4.30;;;3.90;;
42488;SDS011;28118;52.388;9.452;2022-08-07T20:19:01;4.95;;;4.45;;
42488;SDS011;28118;52.388;9.452;2022-08-07T20:21:37;9.80;;;4.50;;
42488;SDS011;28118;52.388;9.452;2022-08-07T20:24:34;5.10;;;4.55;;
42488;SDS011;28118;52.388;9.452;2022-08-07T20:27:04;7.68;;;4.15;;